createdAt,value
2023-04-09T00:01:08.153Z,7.34
2023-04-09T00:03:36.476Z,7.39
2023-04-09T00:06:05.007Z,7.44
2023-04-09T00:08:32.688Z,7.48
2023-04-09T00:11:00.404Z,7.52
2023-04-09T00:13:37.867Z,7.58
2023-04-09T00:16:08.041Z,7.61
2023-04-09T00:18:36.282Z,7.64
2023-04-09T00:21:04.164Z,7.66
2023-04-09T00:23:31.897Z,7.68
2023-04-09T00:26:00.257Z,7.70
2023-04-09T00:28:27.976Z,7.70
2023-04-09T00:30:55.909Z,7.68
2023-04-09T00:33:23.765Z,7.65
2023-04-09T00:35:51.482Z,7.62
2023-04-09T00:38:19.320Z,7.59
2023-04-09T00:40:51.173Z,7.55
2023-04-09T00:43:18.903Z,7.51
2023-04-09T00:45:47.215Z,7.50
2023-04-09T00:48:16.034Z,7.48
2023-04-09T00:50:43.989Z,7.47
2023-04-09T00:53:12.261Z,7.46
2023-04-09T00:55:41.340Z,7.46
2023-04-09T00:58:09.263Z,7.46
2023-04-09T01:00:36.917Z,7.47
2023-04-09T01:03:06.645Z,7.48
2023-04-09T01:05:40.785Z,7.50
2023-04-09T01:08:18.385Z,7.53
2023-04-09T01:10:48.626Z,7.54
2023-04-09T01:13:19.768Z,7.54
2023-04-09T01:15:56.401Z,7.53
2023-04-09T01:18:28.314Z,7.49
2023-04-09T01:21:02.405Z,7.45
2023-04-09T01:23:47.193Z,7.42
2023-04-09T01:26:30.422Z,7.36
2023-04-09T01:29:00.518Z,7.29
2023-04-09T01:31:29.801Z,7.26
2023-04-09T01:33:57.738Z,7.21
2023-04-09T01:36:26.407Z,7.17
2023-04-09T01:38:55.895Z,7.14
2023-04-09T01:41:24.876Z,7.12
2023-04-09T01:43:53.051Z,7.09
2023-04-09T01:46:22.022Z,7.09
2023-04-09T01:48:51.322Z,7.06
2023-04-09T01:51:19.720Z,7.04
2023-04-09T01:53:48.412Z,7.02
2023-04-09T01:56:16.270Z,6.97
2023-04-09T01:58:43.924Z,6.94
2023-04-09T02:01:27.945Z,6.92
2023-04-09T02:04:02.362Z,6.89
2023-04-09T02:06:46.244Z,6.85
2023-04-09T02:09:16.986Z,6.82
2023-04-09T02:11:46.170Z,6.80
2023-04-09T02:14:15.289Z,6.79
2023-04-09T02:16:43.305Z,6.78
2023-04-09T02:19:11.810Z,6.76
2023-04-09T02:21:39.551Z,6.75
2023-04-09T02:24:07.294Z,6.78
2023-04-09T02:26:35.752Z,6.83
2023-04-09T02:29:03.853Z,6.86
2023-04-09T02:31:31.553Z,6.90
2023-04-09T02:33:59.314Z,6.95
2023-04-09T02:36:27.581Z,7.00
2023-04-09T02:38:56.256Z,7.02
2023-04-09T02:41:24.828Z,7.00
2023-04-09T02:43:52.541Z,6.97
2023-04-09T02:46:20.414Z,6.92
2023-04-09T02:48:48.833Z,6.86
2023-04-09T02:51:16.594Z,6.80
2023-04-09T02:53:45.582Z,6.76
2023-04-09T02:56:13.369Z,6.73
2023-04-09T02:58:41.137Z,6.71
2023-04-09T03:01:09.008Z,6.70
2023-04-09T03:03:39.101Z,6.67
2023-04-09T03:06:06.990Z,6.63
2023-04-09T03:08:34.731Z,6.61
2023-04-09T03:11:02.756Z,6.60
2023-04-09T03:13:30.682Z,6.60
2023-04-09T03:15:59.127Z,6.59
2023-04-09T03:18:28.249Z,6.56
2023-04-09T03:20:56.437Z,6.52
2023-04-09T03:23:24.408Z,6.49
2023-04-09T03:26:08.949Z,6.46
2023-04-09T03:28:43.413Z,6.41
2023-04-09T03:31:11.154Z,6.40
2023-04-09T03:33:40.146Z,6.38
2023-04-09T03:36:08.935Z,6.35
2023-04-09T03:38:53.001Z,6.31
2023-04-09T03:41:37.003Z,6.28
2023-04-09T03:44:07.500Z,6.23
2023-04-09T03:46:42.990Z,6.19
2023-04-09T03:49:13.421Z,6.16
2023-04-09T03:51:44.483Z,6.11
2023-04-09T03:54:12.940Z,6.07
2023-04-09T03:56:41.563Z,6.03
2023-04-09T03:59:11.858Z,5.99
2023-04-09T04:01:41.860Z,5.98
2023-04-09T04:04:10.256Z,5.97
2023-04-09T04:06:43.080Z,5.94
2023-04-09T04:09:31.580Z,5.88
2023-04-09T04:12:04.270Z,5.83
2023-04-09T04:14:47.052Z,5.78
2023-04-09T04:17:21.863Z,5.74
2023-04-09T04:19:50.838Z,5.70
2023-04-09T04:22:18.542Z,5.65
2023-04-09T04:24:47.313Z,5.63
2023-04-09T04:27:18.040Z,5.64
2023-04-09T04:29:46.362Z,5.63
2023-04-09T04:32:40.735Z,5.58
2023-04-09T04:35:11.012Z,5.55
2023-04-09T04:37:40.526Z,5.51
2023-04-09T04:40:08.957Z,5.48
2023-04-09T04:42:39.457Z,5.46
2023-04-09T04:45:11.471Z,5.41
2023-04-09T04:47:46.876Z,5.35
2023-04-09T04:50:15.025Z,5.29
2023-04-09T04:53:03.066Z,5.26
2023-04-09T04:55:39.398Z,5.26
2023-04-09T04:58:07.682Z,5.27
2023-04-09T05:00:43.232Z,5.27
2023-04-09T05:03:11.678Z,5.26
2023-04-09T05:06:05.990Z,5.25
2023-04-09T05:08:40.621Z,5.25
2023-04-09T05:11:11.347Z,5.24
2023-04-09T05:13:39.396Z,5.23
2023-04-09T05:16:15.710Z,5.25
2023-04-09T05:18:44.767Z,5.25
2023-04-09T05:21:12.771Z,5.23
2023-04-09T05:23:41.370Z,5.23
2023-04-09T05:26:09.113Z,5.23
2023-04-09T05:28:46.605Z,5.23
2023-04-09T05:31:17.795Z,5.23
2023-04-09T05:34:01.690Z,5.24
2023-04-09T05:36:39.200Z,5.26
2023-04-09T05:39:07.384Z,5.33
2023-04-09T05:41:37.208Z,5.37
2023-04-09T05:44:25.345Z,5.45
2023-04-09T05:46:57.249Z,5.50
2023-04-09T05:49:29.427Z,5.54
2023-04-09T05:51:58.154Z,5.59
2023-04-09T05:54:28.308Z,5.63
2023-04-09T05:56:56.038Z,5.71
2023-04-09T05:59:24.120Z,5.79
2023-04-09T06:01:51.901Z,5.84
2023-04-09T06:04:19.856Z,5.87
2023-04-09T06:06:48.033Z,5.92
2023-04-09T06:09:16.110Z,5.93
2023-04-09T06:11:43.781Z,5.94
2023-04-09T06:14:16.400Z,5.97
2023-04-09T06:16:44.269Z,5.99
2023-04-09T06:19:12.393Z,6.05
2023-04-09T06:21:40.894Z,6.07
2023-04-09T06:24:08.706Z,6.09
2023-04-09T06:26:36.580Z,6.11
2023-04-09T06:29:04.569Z,6.11
2023-04-09T06:31:33.206Z,6.10
2023-04-09T06:34:01.045Z,6.12
2023-04-09T06:36:28.776Z,6.16
2023-04-09T06:38:57.185Z,6.18
2023-04-09T06:41:26.448Z,6.20
2023-04-09T06:43:54.618Z,6.23
2023-04-09T06:46:22.790Z,6.26
2023-04-09T06:48:50.886Z,6.28
2023-04-09T06:51:18.573Z,6.31
2023-04-09T06:53:48.271Z,6.35
2023-04-09T06:56:16.262Z,6.42
2023-04-09T06:58:44.133Z,6.49
2023-04-09T07:01:12.709Z,6.52
2023-04-09T07:03:41.007Z,6.57
2023-04-09T07:06:09.027Z,6.64
2023-04-09T07:08:36.721Z,6.72
2023-04-09T07:11:04.738Z,6.79
2023-04-09T07:13:33.289Z,6.86
2023-04-09T07:16:01.453Z,6.92
2023-04-09T07:18:30.502Z,6.95
2023-04-09T07:20:59.330Z,7.00
2023-04-09T07:23:27.188Z,7.03
2023-04-09T07:25:54.868Z,7.05
2023-04-09T07:28:22.740Z,7.06
2023-04-09T07:30:50.520Z,7.07
2023-04-09T07:33:18.344Z,7.08
2023-04-09T07:35:46.864Z,7.11
2023-04-09T07:38:14.801Z,7.12
2023-04-09T07:40:42.501Z,7.16
2023-04-09T07:43:10.552Z,7.22
2023-04-09T07:45:38.435Z,7.26
2023-04-09T07:48:08.674Z,7.30
2023-04-09T07:50:36.412Z,7.35
2023-04-09T07:53:04.210Z,7.39
2023-04-09T07:55:31.864Z,7.42
2023-04-09T07:57:59.563Z,7.46
2023-04-09T08:00:27.885Z,7.52
2023-04-09T08:02:57.390Z,7.58
2023-04-09T08:05:25.411Z,7.62
2023-04-09T08:07:53.325Z,7.65
2023-04-09T08:10:21.118Z,7.65
2023-04-09T08:12:49.003Z,7.62
2023-04-09T08:15:16.913Z,7.61
2023-04-09T08:17:44.689Z,7.63
2023-04-09T08:20:12.752Z,7.68
2023-04-09T08:22:41.336Z,7.78
2023-04-09T08:25:09.100Z,7.85
2023-04-09T08:27:37.073Z,7.92
2023-04-09T08:30:05.235Z,7.98
2023-04-09T08:32:32.915Z,8.02
2023-04-09T08:35:00.888Z,8.05
2023-04-09T08:37:29.556Z,8.07
2023-04-09T08:39:57.173Z,8.11
2023-04-09T08:42:25.603Z,8.14
2023-04-09T08:44:53.389Z,8.20
2023-04-09T08:47:21.507Z,8.22
2023-04-09T08:49:50.151Z,8.26
2023-04-09T08:52:21.869Z,8.33
2023-04-09T08:54:51.240Z,8.41
2023-04-09T08:57:19.229Z,8.55
2023-04-09T08:59:46.914Z,8.64
2023-04-09T09:02:14.627Z,8.70
2023-04-09T09:04:49.201Z,8.75
2023-04-09T09:07:17.312Z,8.80
2023-04-09T09:09:55.660Z,8.81
2023-04-09T09:12:51.652Z,8.83
2023-04-09T09:15:27.284Z,8.92
2023-04-09T09:17:59.312Z,8.98
2023-04-09T09:20:27.552Z,9.02
2023-04-09T09:22:56.801Z,9.01
2023-04-09T09:25:26.390Z,9.06
2023-04-09T09:27:54.879Z,9.09
2023-04-09T09:30:27.086Z,9.19
2023-04-09T09:33:15.653Z,9.23
2023-04-09T09:35:51.013Z,9.24
2023-04-09T09:38:19.010Z,9.26
2023-04-09T09:40:47.507Z,9.29
2023-04-09T09:43:15.601Z,9.33
2023-04-09T09:45:44.340Z,9.33
2023-04-09T09:48:13.089Z,9.35
2023-04-09T09:50:44.221Z,9.36
2023-04-09T09:53:11.989Z,9.37
2023-04-09T09:55:41.158Z,9.43
2023-04-09T09:58:12.670Z,9.48
2023-04-09T10:00:41.036Z,9.51
2023-04-09T10:03:21.319Z,9.54
2023-04-09T10:05:49.848Z,9.55
2023-04-09T10:08:18.074Z,9.58
2023-04-09T10:10:46.684Z,9.63
2023-04-09T10:13:18.266Z,9.68
2023-04-09T10:15:46.784Z,9.70
2023-04-09T10:18:16.455Z,9.73
2023-04-09T10:21:00.200Z,9.75
2023-04-09T10:23:33.970Z,9.87
2023-04-09T10:26:03.103Z,10.09
2023-04-09T10:28:31.213Z,10.33
2023-04-09T10:30:59.643Z,10.54
2023-04-09T10:33:28.093Z,10.68
2023-04-09T10:36:00.083Z,10.82
2023-04-09T10:38:44.036Z,10.87
2023-04-09T10:41:16.800Z,10.97
2023-04-09T10:43:47.104Z,11.09
2023-04-09T10:46:31.102Z,11.22
2023-04-09T10:49:15.198Z,11.35
2023-04-09T10:51:48.343Z,11.46
2023-04-09T10:54:32.538Z,11.56
2023-04-09T10:57:16.687Z,11.74
2023-04-09T10:59:49.016Z,11.96
2023-04-09T11:02:32.885Z,12.06
2023-04-09T11:05:16.866Z,12.09
2023-04-09T11:07:46.952Z,12.12
2023-04-09T11:10:14.853Z,12.17
2023-04-09T11:12:42.976Z,12.20
2023-04-09T11:15:19.987Z,12.31
2023-04-09T11:17:48.356Z,12.41
2023-04-09T11:20:23.184Z,12.43
2023-04-09T11:22:51.533Z,12.46
2023-04-09T11:25:20.265Z,12.50
2023-04-09T11:27:48.825Z,12.52
2023-04-09T11:30:16.919Z,12.52
2023-04-09T11:32:45.414Z,12.51
2023-04-09T11:35:20.519Z,12.54
2023-04-09T11:37:49.139Z,12.60
2023-04-09T11:40:17.994Z,12.66
2023-04-09T11:42:46.202Z,12.70
2023-04-09T11:45:14.741Z,12.73
2023-04-09T11:47:43.620Z,12.74
2023-04-09T11:50:12.733Z,12.73
2023-04-09T11:52:41.726Z,12.71
2023-04-09T11:55:10.091Z,12.76
2023-04-09T11:57:39.613Z,12.76
2023-04-09T12:00:12.273Z,12.73
2023-04-09T12:02:43.398Z,12.71
2023-04-09T12:05:12.521Z,12.69
2023-04-09T12:07:42.351Z,12.67
2023-04-09T12:10:14.355Z,12.67
2023-04-09T12:12:42.952Z,12.67
2023-04-09T12:15:27.078Z,12.69
2023-04-09T12:17:55.486Z,12.71
2023-04-09T12:20:43.515Z,12.75
2023-04-09T12:23:12.176Z,12.78
2023-04-09T12:25:41.209Z,12.80
2023-04-09T12:28:11.114Z,12.86
2023-04-09T12:30:39.092Z,12.92
2023-04-09T12:33:08.331Z,12.98
2023-04-09T12:35:38.720Z,13.04
2023-04-09T12:38:06.695Z,13.14
2023-04-09T12:40:37.871Z,13.28
2023-04-09T12:43:05.640Z,13.37
2023-04-09T12:45:33.529Z,13.52
2023-04-09T12:48:01.332Z,13.61
2023-04-09T12:50:29.044Z,13.64
2023-04-09T12:52:56.765Z,13.66
2023-04-09T12:55:24.536Z,13.66
2023-04-09T12:57:52.217Z,13.63
2023-04-09T13:00:19.970Z,13.58
2023-04-09T13:02:47.931Z,13.50
2023-04-09T13:05:16.095Z,13.38
2023-04-09T13:07:43.802Z,13.29
2023-04-09T13:10:11.548Z,13.18
2023-04-09T13:12:39.435Z,13.12
2023-04-09T13:15:07.271Z,13.09
2023-04-09T13:17:35.044Z,13.07
2023-04-09T13:20:03.596Z,13.04
2023-04-09T13:22:31.247Z,13.04
2023-04-09T13:24:58.962Z,13.04
2023-04-09T13:27:26.673Z,13.04
2023-04-09T13:29:54.562Z,13.06
2023-04-09T13:32:23.235Z,13.11
2023-04-09T13:34:51.235Z,13.17
2023-04-09T13:37:19.054Z,13.23
2023-04-09T13:39:46.699Z,13.31
2023-04-09T13:42:16.064Z,13.44
2023-04-09T13:44:46.736Z,13.64
2023-04-09T13:47:15.993Z,13.85
2023-04-09T13:49:43.926Z,14.05
2023-04-09T13:52:11.603Z,14.21
2023-04-09T13:54:39.335Z,14.34
2023-04-09T13:57:07.088Z,14.44
2023-04-09T13:59:34.785Z,14.55
2023-04-09T14:02:02.542Z,14.67
2023-04-09T14:04:30.772Z,14.84
2023-04-09T14:06:58.713Z,14.93
2023-04-09T14:09:26.388Z,15.00
2023-04-09T14:11:55.092Z,15.14
2023-04-09T14:14:22.814Z,15.63
2023-04-09T14:16:50.485Z,17.28
2023-04-09T14:19:18.142Z,19.00
2023-04-09T14:21:46.008Z,20.50
2023-04-09T14:24:13.692Z,21.84
2023-04-09T14:26:41.740Z,22.51
2023-04-09T14:29:09.435Z,22.30
2023-04-09T14:31:37.212Z,21.78
2023-04-09T14:34:05.001Z,21.10
2023-04-09T14:36:32.932Z,20.43
2023-04-09T14:39:01.230Z,19.83
2023-04-09T14:41:28.861Z,19.48
2023-04-09T14:43:56.541Z,19.11
2023-04-09T14:46:24.375Z,18.61
2023-04-09T14:48:52.321Z,18.04
2023-04-09T14:51:20.535Z,17.40
2023-04-09T14:53:48.517Z,16.85
2023-04-09T14:56:16.879Z,16.38
2023-04-09T14:58:44.499Z,15.93
2023-04-09T15:01:12.273Z,15.57
2023-04-09T15:06:09.610Z,14.91
2023-04-09T15:08:37.322Z,14.64
2023-04-09T15:11:05.232Z,14.45
2023-04-09T15:13:32.904Z,14.28
2023-04-09T15:16:00.893Z,14.06
2023-04-09T15:18:28.914Z,13.85
2023-04-09T15:20:56.576Z,13.70
2023-04-09T15:23:24.341Z,13.54
2023-04-09T15:25:52.024Z,13.40
2023-04-09T15:28:19.733Z,13.29
2023-04-09T15:30:47.502Z,13.16
2023-04-09T15:33:15.221Z,13.09
2023-04-09T15:35:43.040Z,13.03
2023-04-09T15:38:10.889Z,13.00
2023-04-09T15:40:40.303Z,12.98
2023-04-09T15:43:08.155Z,12.98
2023-04-09T15:45:35.852Z,12.93
2023-04-09T15:48:03.977Z,12.89
2023-04-09T15:50:31.724Z,12.84
2023-04-09T15:52:59.453Z,12.81
2023-04-09T15:55:27.227Z,12.75
2023-04-09T15:57:55.023Z,12.71
2023-04-09T16:00:24.036Z,12.69
2023-04-09T16:02:53.019Z,12.65
2023-04-09T16:05:20.828Z,12.59
2023-04-09T16:07:51.678Z,12.54
2023-04-09T16:10:19.477Z,12.50
2023-04-09T16:12:47.346Z,12.46
2023-04-09T16:15:15.042Z,12.42
2023-04-09T16:17:42.686Z,12.36
2023-04-09T16:20:10.854Z,12.25
2023-04-09T16:22:38.471Z,12.17
2023-04-09T16:25:06.881Z,12.14
2023-04-09T16:27:34.534Z,12.13
2023-04-09T16:30:02.611Z,12.12
2023-04-09T16:32:30.386Z,12.10
2023-04-09T16:35:00.626Z,12.05
2023-04-09T16:37:29.199Z,12.01
2023-04-09T16:39:58.036Z,11.93
2023-04-09T16:42:27.267Z,11.89
2023-04-09T16:44:55.220Z,11.87
2023-04-09T16:47:23.027Z,11.87
2023-04-09T16:49:50.819Z,11.85
2023-04-09T16:52:18.483Z,11.80
2023-04-09T16:54:46.249Z,11.74
2023-04-09T16:57:14.464Z,11.66
2023-04-09T16:59:42.908Z,11.59
2023-04-09T17:02:10.695Z,11.53
2023-04-09T17:04:38.522Z,11.48
2023-04-09T17:07:06.239Z,11.42
2023-04-09T17:09:34.314Z,11.34
2023-04-09T17:12:02.561Z,11.24
2023-04-09T17:14:31.553Z,11.14
2023-04-09T17:16:59.403Z,11.01
2023-04-09T17:19:27.265Z,10.88
2023-04-09T17:21:55.822Z,10.76
2023-04-09T17:24:24.426Z,10.64
2023-04-09T17:26:52.271Z,10.52
2023-04-09T17:29:20.549Z,10.41
2023-04-09T17:31:53.086Z,10.28
2023-04-09T17:34:20.975Z,10.15
2023-04-09T17:36:50.122Z,10.01
2023-04-09T17:39:17.730Z,9.87
2023-04-09T17:41:45.754Z,9.76
2023-04-09T17:44:13.502Z,9.66
2023-04-09T17:46:41.206Z,9.57
2023-04-09T17:49:09.680Z,9.50
2023-04-09T17:51:37.468Z,9.44
2023-04-09T17:54:05.504Z,9.37
2023-04-09T17:56:35.406Z,9.31
2023-04-09T17:59:03.100Z,9.24
2023-04-09T18:01:31.017Z,9.16
2023-04-09T18:03:59.813Z,9.09
2023-04-09T18:06:28.053Z,9.01
2023-04-09T18:08:55.791Z,8.93
2023-04-09T18:11:24.373Z,8.89
2023-04-09T18:13:52.354Z,8.86
2023-04-09T18:16:23.067Z,8.84
2023-04-09T18:18:51.623Z,8.84
2023-04-09T18:21:20.035Z,8.84
2023-04-09T18:23:48.133Z,8.85
2023-04-09T18:26:15.858Z,8.87
2023-04-09T18:28:43.907Z,8.88
2023-04-09T18:31:11.854Z,8.89
2023-04-09T18:33:39.687Z,8.88
2023-04-09T18:36:07.808Z,8.88
2023-04-09T18:38:36.964Z,8.84
2023-04-09T18:41:05.308Z,8.78
2023-04-09T18:43:33.022Z,8.71
2023-04-09T18:46:01.264Z,8.65
2023-04-09T18:48:29.141Z,8.60
2023-04-09T18:50:56.806Z,8.56
2023-04-09T18:53:26.364Z,8.49
2023-04-09T18:55:54.374Z,8.43
2023-04-09T18:58:22.652Z,8.36
2023-04-09T19:00:53.047Z,8.27
2023-04-09T19:03:21.273Z,8.18
2023-04-09T19:05:49.667Z,8.10
2023-04-09T19:08:17.410Z,8.00
2023-04-09T19:10:47.426Z,7.95
2023-04-09T19:13:15.303Z,7.90
2023-04-09T19:15:43.151Z,7.86
2023-04-09T19:18:11.123Z,7.83
2023-04-09T19:20:39.006Z,7.81
2023-04-09T19:23:07.065Z,7.81
2023-04-09T19:25:34.804Z,7.82
2023-04-09T19:28:02.882Z,7.85
2023-04-09T19:30:30.879Z,7.89
2023-04-09T19:32:59.079Z,7.94
2023-04-09T19:35:27.178Z,8.02
2023-04-09T19:37:55.950Z,8.10
2023-04-09T19:40:23.676Z,8.15
2023-04-09T19:42:51.662Z,8.17
2023-04-09T19:45:19.327Z,8.18
2023-04-09T19:47:47.365Z,8.18
2023-04-09T19:50:15.376Z,8.16
2023-04-09T19:52:43.436Z,8.18
2023-04-09T19:55:11.165Z,8.19
2023-04-09T19:57:40.597Z,8.18
2023-04-09T20:00:08.786Z,8.17
2023-04-09T20:02:41.394Z,8.17
2023-04-09T20:05:10.335Z,8.17
2023-04-09T20:07:38.513Z,8.17
2023-04-09T20:10:06.579Z,8.16
2023-04-09T20:12:34.252Z,8.15
2023-04-09T20:15:02.325Z,8.14
2023-04-09T20:17:30.103Z,8.14
2023-04-09T20:19:57.841Z,8.13
2023-04-09T20:22:25.607Z,8.12
2023-04-09T20:24:53.370Z,8.09
2023-04-09T20:27:22.431Z,8.07
2023-04-09T20:29:50.183Z,8.04
2023-04-09T20:32:18.381Z,8.02
2023-04-09T20:34:46.346Z,8.01
2023-04-09T20:37:14.033Z,8.00
2023-04-09T20:39:41.727Z,7.98
2023-04-09T20:42:09.476Z,7.98
2023-04-09T20:44:38.061Z,7.99
2023-04-09T20:47:07.168Z,8.01
2023-04-09T20:49:34.858Z,8.02
2023-04-09T20:52:02.540Z,8.06
2023-04-09T20:54:30.762Z,8.11
2023-04-09T20:56:58.478Z,8.17
2023-04-09T20:59:26.419Z,8.22
2023-04-09T21:01:57.203Z,8.25
2023-04-09T21:04:26.023Z,8.29
2023-04-09T21:06:53.985Z,8.35
2023-04-09T21:09:21.741Z,8.32
2023-04-09T21:11:49.370Z,8.25
2023-04-09T21:14:17.041Z,8.17
2023-04-09T21:16:44.815Z,8.08
2023-04-09T21:19:12.606Z,8.01
2023-04-09T21:21:40.273Z,7.93
2023-04-09T21:24:08.009Z,7.89
2023-04-09T21:26:49.520Z,7.87
2023-04-09T21:29:18.956Z,7.81
2023-04-09T21:31:47.353Z,7.75
2023-04-09T21:34:15.624Z,7.69
2023-04-09T21:36:45.336Z,7.65
2023-04-09T21:39:13.277Z,7.62
2023-04-09T21:41:41.176Z,7.59
2023-04-09T21:44:08.934Z,7.54
2023-04-09T21:46:37.374Z,7.52
2023-04-09T21:49:05.486Z,7.50
2023-04-09T21:51:33.151Z,7.47
2023-04-09T21:54:04.223Z,7.46
2023-04-09T21:56:33.009Z,7.48
2023-04-09T21:59:01.287Z,7.47
2023-04-09T22:01:31.256Z,7.44
2023-04-09T22:04:00.135Z,7.40
2023-04-09T22:06:28.970Z,7.33
2023-04-09T22:08:58.281Z,7.23
2023-04-09T22:11:27.874Z,7.13
2023-04-09T22:13:57.161Z,7.04
2023-04-09T22:16:25.841Z,6.94
2023-04-09T22:18:54.869Z,6.82
2023-04-09T22:21:22.941Z,6.67
2023-04-09T22:23:50.984Z,6.54
2023-04-09T22:26:19.043Z,6.46
2023-04-09T22:28:46.683Z,6.37
2023-04-09T22:31:14.445Z,6.31
2023-04-09T22:33:42.443Z,6.27
2023-04-09T22:36:10.232Z,6.25
2023-04-09T22:38:38.272Z,6.28
2023-04-09T22:41:06.301Z,6.31
2023-04-09T22:43:34.191Z,6.33
2023-04-09T22:46:02.590Z,6.35
2023-04-09T22:48:30.782Z,6.32
2023-04-09T22:50:58.884Z,6.28
2023-04-09T22:53:26.653Z,6.22
2023-04-09T22:55:54.796Z,6.12
2023-04-09T22:58:22.475Z,6.01
2023-04-09T23:00:50.630Z,5.92
2023-04-09T23:03:18.644Z,5.82
2023-04-09T23:05:46.620Z,5.76
2023-04-09T23:08:14.316Z,5.71
2023-04-09T23:10:42.014Z,5.68
2023-04-09T23:13:12.351Z,5.66
2023-04-09T23:15:40.447Z,5.66
2023-04-09T23:18:08.252Z,5.67
2023-04-09T23:20:36.495Z,5.71
2023-04-09T23:23:04.180Z,5.74
2023-04-09T23:25:31.877Z,5.76
2023-04-09T23:27:59.581Z,5.79
2023-04-09T23:30:27.611Z,5.83
2023-04-09T23:32:57.544Z,5.87
2023-04-09T23:35:26.560Z,5.85
2023-04-09T23:37:54.258Z,5.84
2023-04-09T23:40:22.073Z,5.82
2023-04-09T23:42:50.178Z,5.78
2023-04-09T23:45:18.288Z,5.70
2023-04-09T23:47:46.515Z,5.61
2023-04-09T23:50:14.251Z,5.53
2023-04-09T23:52:46.536Z,5.43
2023-04-09T23:55:15.307Z,5.36
2023-04-09T23:57:43.600Z,5.26
